Flight Track Log - Related Links

Times and Time Zones

All times are in EDT time to prevent confusion due to time zone crossing. See the JBU56 flight status page for this flight to view local times or setup timezone preferences in your user account.

Time Position Orientation Groundspeed Altitude Reporting Facility
EDT Latitude Longitude Course Direction KTS MPH feet Rate Location/Type
Thu 09:07:05 AM 38.9500 -77.5000 333° Northwest 158 182 1,300  Level Potomac TRACON
Thu 09:08:05 AM 39.0000 -77.5333 333° Northwest 205 236 2,600 1,700 Climbing Potomac TRACON
Thu 09:09:05 AM 39.0500 -77.5833 322° Northwest 246 283 4,700 2,474 Climbing Potomac TRACON
Thu 09:09:59 AM 39.1167 -77.5500 21° North 272 313 7,300 2,684 Climbing Potomac TRACON
Thu 09:10:59 AM 39.1500 -77.4667 63° Northeast 289 333 9,800 1,350 Climbing Potomac TRACON
Thu 09:11:59 AM 39.1667 -77.3667 78° East 308 354 10,000 1,000 Climbing Potomac TRACON
Thu 09:12:53 AM 39.1500 -77.2667 102° East 355 409 11,700 1,929 Climbing Potomac TRACON
Thu 09:14:47 AM 39.0817 -77.0517 112° Southeast 371 427 15,400 2,126 Climbing Washington Center
Thu 09:15:48 AM 39.0878 -76.8914 87° East 371 427 17,900 2,066 Climbing Washington Center
Thu 09:16:49 AM 39.1017 -76.7525 83° East 371 427 19,600 1,714 Climbing Washington Center
Thu 09:17:47 AM 39.1153 -76.6108 83° East 382 440 21,300 1,714 Climbing Washington Center
Thu 09:18:48 AM 39.1292 -76.4667 83° East 400 460 23,000 843 Climbing Washington Center
Thu 09:19:48 AM 39.1425 -76.3194 83° East 407 468 23,000  Level Washington Center
Thu 09:20:47 AM 39.1558 -76.1725 83° East 407 468 23,000  Level Washington Center
Thu 09:21:47 AM 39.1731 -76.0361 81° East 416 479 23,000 793 Level Washington Center
Thu 09:22:48 AM 39.1964 -75.8917 78° East 416 479 24,600 1,426 Climbing Washington Center
Thu 09:23:49 AM 39.2739 -75.7739 50° Northeast 401 461 25,900 1,240 Climbing Washington Center
Thu 09:24:49 AM 39.3594 -75.6639 45° Northeast 413 475 27,100 1,119 Climbing Washington Center
Thu 09:25:47 AM 39.4489 -75.5511 44° Northeast 428 493 28,100 1,119 Climbing Washington Center
Thu 09:26:47 AM 39.5342 -75.4381 46° Northeast 438 504 29,300 1,300 Climbing Washington Center
Thu 09:27:47 AM 39.6236 -75.3194 46° Northeast 444 511 30,700 658 Climbing Washington Center
Thu 09:29:22 AM 39.7578 -75.1292 47° Northeast 445 512 31,000 116 Climbing New York Center
Thu 09:30:22 AM 39.8525 -74.9944 47° Northeast 455 524 31,000  Level New York Center
Thu 09:31:24 AM 39.9444 -74.8647 47° Northeast 460 529 31,000  Level New York Center
Thu 09:32:24 AM 40.0278 -74.7475 47° Northeast 460 529 31,000  Level New York Center
Thu 09:33:22 AM 40.1067 -74.6356 47° Northeast 455 524 31,000  Level New York Center
Thu 09:34:23 AM 40.2028 -74.4914 49° Northeast 460 529 31,000  Level New York Center
Thu 09:35:24 AM 40.2839 -74.3625 50° Northeast 465 535 31,000 -353 Level New York Center
Thu 09:36:22 AM 40.3672 -74.2278 51° Northeast 465 535 30,300 -857 Descending New York Center
Thu 09:37:23 AM 40.4503 -74.0983 50° Northeast 465 535 29,300 -793 Descending New York Center
Thu 09:39:16 AM 40.6014 -73.8586 50° Northeast 454 522 28,000 -798 Descending Boston Center
Thu 09:40:16 AM 40.6819 -73.7319 50° Northeast 448 516 27,000 -1,150 Descending Boston Center
Thu 09:41:16 AM 40.7500 -73.6072 54° Northeast 448 516 25,700 -1,350 Descending Boston Center
Thu 09:42:16 AM 40.8283 -73.4850 50° Northeast 448 516 24,300 -850 Descending Boston Center
Thu 09:43:16 AM 40.9044 -73.3656 50° Northeast 438 504 24,000 -350 Descending Boston Center
Thu 09:44:16 AM 40.9950 -73.2431 46° Northeast 424 488 23,600 -500 Descending Boston Center
Thu 09:45:16 AM 41.0750 -73.1256 48° Northeast 419 482 23,000 -300 Descending Boston Center
Thu 09:46:16 AM 41.1528 -73.0053 49° Northeast 419 482 23,000  Level Boston Center
Thu 09:47:16 AM 41.2303 -72.8817 50° Northeast 414 476 23,000  Level Boston Center
Thu 09:48:16 AM 41.2872 -72.7356 63° Northeast 429 494 23,000  Level Boston Center
Thu 09:49:16 AM 41.3417 -72.5894 64° Northeast 434 499 23,000  Level Boston Center
Thu 09:50:16 AM 41.3917 -72.4456 65° Northeast 434 499 23,000 -50 Level Boston Center
Thu 09:51:16 AM 41.4458 -72.2989 64° Northeast 434 499 22,900 -1,050 Descending Boston Center
Thu 09:52:16 AM 41.4936 -72.1714 63° Northeast 423 487 20,900 -2,250 Descending Boston Center
Thu 09:53:16 AM 41.5514 -72.0183 63° Northeast 423 487 18,400 -2,450 Descending Boston Center
Thu 09:54:16 AM 41.5925 -71.8767 69° East 413 475 16,000 -2,200 Descending Boston Center
Thu 09:55:16 AM 41.6333 -71.7458 67° East 402 463 14,000 -2,150 Descending Boston Center
Thu 09:56:16 AM 41.6681 -71.6175 70° East 371 427 11,700 -1,500 Descending Boston Center
Thu 09:57:16 AM 41.7006 -71.5086 68° East 355 409 11,000 -350 Descending Boston Center
Thu 09:58:16 AM 41.7475 -71.4022 59° Northeast 303 349 11,000  Level Boston Center
Thu 09:59:16 AM 41.7967 -71.3233 50° Northeast 298 343 11,000 -100 Level Boston Center
Thu 10:00:16 AM 41.8647 -71.2469 40° Northeast 292 336 10,800 -900 Descending Boston Center
Thu 10:01:16 AM 41.9331 -71.2122 21° North 284 327 9,200 -1,750 Descending Boston Center
Thu 10:02:16 AM 42.0119 -71.1744 20° North 279 321 7,300 -2,000 Descending Boston Center
Thu 10:03:16 AM 42.0761 -71.1450 19° North 274 315 5,200 -1,650 Descending Boston Center
Thu 10:04:16 AM 42.1467 -71.1100 20° North 259 298 4,000 -1,050 Descending Boston Center
Thu 10:05:16 AM 42.2028 -71.0864 17° North 230 265 3,100 -1,000 Descending Boston Center
Thu 10:06:16 AM 42.2564 -71.0544 24° Northeast 202 232 2,000 -1,000 Descending Boston Center
Thu 10:07:16 AM 42.2958 -71.0367 18° North 172 198 1,100 -750 Descending Boston Center
Thu 10:08:16 AM 42.3372 -71.0217 15° North 164 189 500 -250 Descending Boston Center
Thu 10:09:16 AM 42.3872 -71.0036 15° North 164 189 600 11,250 Climbing Boston Center
Thu 10:10:16 AM 42.4242 -70.9747 30° Northeast 164 189 23,000 22,400 Climbing Boston Center

Login

Don't have an account? Register now (free) for customized features, flight alerts, and more!